sensor_id;sensor_type;location;lat;lon;timestamp;P1;durP1;ratioP1;P2;durP2;ratioP2
22070;SDS011;11200;51.488;6.668;2022-08-01T00:01:20;4.68;;;3.38;;
22070;SDS011;11200;51.488;6.668;2022-08-01T00:03:46;4.53;;;3.03;;
22070;SDS011;11200;51.488;6.668;2022-08-01T00:06:11;4.22;;;2.97;;
22070;SDS011;11200;51.488;6.668;2022-08-01T00:08:37;3.50;;;3.20;;
22070;SDS011;11200;51.488;6.668;2022-08-01T00:11:03;3.33;;;3.03;;
22070;SDS011;11200;51.488;6.668;2022-08-01T00:13:28;4.60;;;3.30;;
22070;SDS011;11200;51.488;6.668;2022-08-01T00:15:54;3.38;;;3.08;;
22070;SDS011;11200;51.488;6.668;2022-08-01T00:18:19;4.22;;;3.28;;
22070;SDS011;11200;51.488;6.668;2022-08-01T00:20:45;3.25;;;2.90;;
22070;SDS011;11200;51.488;6.668;2022-08-01T00:23:11;3.10;;;2.80;;
22070;SDS011;11200;51.488;6.668;2022-08-01T00:25:36;4.72;;;2.83;;
22070;SDS011;11200;51.488;6.668;2022-08-01T00:28:02;4.13;;;2.92;;
22070;SDS011;11200;51.488;6.668;2022-08-01T00:30:28;2.80;;;2.60;;
22070;SDS011;11200;51.488;6.668;2022-08-01T00:32:53;5.00;;;3.08;;
22070;SDS011;11200;51.488;6.668;2022-08-01T00:35:19;3.63;;;3.33;;
22070;SDS011;11200;51.488;6.668;2022-08-01T00:37:44;4.78;;;3.00;;
22070;SDS011;11200;51.488;6.668;2022-08-01T00:40:10;3.70;;;2.80;;
22070;SDS011;11200;51.488;6.668;2022-08-01T00:42:36;4.05;;;2.90;;
22070;SDS011;11200;51.488;6.668;2022-08-01T00:45:01;3.40;;;2.90;;
22070;SDS011;11200;51.488;6.668;2022-08-01T00:47:27;3.55;;;2.83;;
22070;SDS011;11200;51.488;6.668;2022-08-01T00:49:52;4.35;;;3.33;;
22070;SDS011;11200;51.488;6.668;2022-08-01T00:52:18;3.00;;;2.70;;
22070;SDS011;11200;51.488;6.668;2022-08-01T00:54:44;3.70;;;2.80;;
22070;SDS011;11200;51.488;6.668;2022-08-01T00:57:10;3.35;;;3.05;;
22070;SDS011;11200;51.488;6.668;2022-08-01T00:59:36;4.43;;;3.20;;
22070;SDS011;11200;51.488;6.668;2022-08-01T01:02:03;3.90;;;3.20;;
22070;SDS011;11200;51.488;6.668;2022-08-01T01:04:29;3.38;;;3.08;;
22070;SDS011;11200;51.488;6.668;2022-08-01T01:10:00;4.18;;;3.33;;
22070;SDS011;11200;51.488;6.668;2022-08-01T01:12:54;3.67;;;3.38;;
22070;SDS011;11200;51.488;6.668;2022-08-01T01:15:29;3.00;;;2.80;;
22070;SDS011;11200;51.488;6.668;2022-08-01T01:18:10;4.00;;;3.45;;
22070;SDS011;11200;51.488;6.668;2022-08-01T01:20:41;5.30;;;3.35;;
22070;SDS011;11200;51.488;6.668;2022-08-01T01:23:17;3.67;;;3.08;;
22070;SDS011;11200;51.488;6.668;2022-08-01T01:25:51;4.32;;;3.28;;
22070;SDS011;11200;51.488;6.668;2022-08-01T01:29:03;3.55;;;3.13;;
22070;SDS011;11200;51.488;6.668;2022-08-01T01:31:20;3.53;;;3.08;;
22070;SDS011;11200;51.488;6.668;2022-08-01T01:33:47;4.95;;;3.20;;
22070;SDS011;11200;51.488;6.668;2022-08-01T01:36:14;5.13;;;3.60;;
22070;SDS011;11200;51.488;6.668;2022-08-01T01:38:44;3.67;;;3.33;;
22070;SDS011;11200;51.488;6.668;2022-08-01T01:41:12;3.55;;;3.25;;
22070;SDS011;11200;51.488;6.668;2022-08-01T01:43:41;3.50;;;3.13;;
22070;SDS011;11200;51.488;6.668;2022-08-01T01:46:07;4.80;;;3.28;;
22070;SDS011;11200;51.488;6.668;2022-08-01T01:48:34;3.92;;;3.40;;
22070;SDS011;11200;51.488;6.668;2022-08-01T01:51:01;3.55;;;3.25;;
22070;SDS011;11200;51.488;6.668;2022-08-01T01:53:28;3.60;;;3.30;;
22070;SDS011;11200;51.488;6.668;2022-08-01T01:55:56;3.88;;;3.35;;
22070;SDS011;11200;51.488;6.668;2022-08-01T01:58:24;4.40;;;3.60;;
22070;SDS011;11200;51.488;6.668;2022-08-01T02:00:51;3.83;;;3.40;;
22070;SDS011;11200;51.488;6.668;2022-08-01T02:03:17;4.47;;;3.20;;
22070;SDS011;11200;51.488;6.668;2022-08-01T02:05:44;4.88;;;3.40;;
22070;SDS011;11200;51.488;6.668;2022-08-01T02:08:12;3.70;;;3.40;;
22070;SDS011;11200;51.488;6.668;2022-08-01T02:10:41;3.65;;;3.35;;
22070;SDS011;11200;51.488;6.668;2022-08-01T02:13:41;4.38;;;3.50;;
22070;SDS011;11200;51.488;6.668;2022-08-01T02:16:08;4.25;;;3.30;;
22070;SDS011;11200;51.488;6.668;2022-08-01T02:18:36;5.20;;;3.80;;
22070;SDS011;11200;51.488;6.668;2022-08-01T02:21:03;4.13;;;3.40;;
22070;SDS011;11200;51.488;6.668;2022-08-01T02:23:31;3.20;;;3.00;;
22070;SDS011;11200;51.488;6.668;2022-08-01T02:25:58;4.05;;;3.55;;
22070;SDS011;11200;51.488;6.668;2022-08-01T02:28:31;4.13;;;3.75;;
22070;SDS011;11200;51.488;6.668;2022-08-01T02:31:01;3.90;;;3.50;;
22070;SDS011;11200;51.488;6.668;2022-08-01T02:33:34;4.18;;;3.40;;
22070;SDS011;11200;51.488;6.668;2022-08-01T02:36:04;3.97;;;3.58;;
22070;SDS011;11200;51.488;6.668;2022-08-01T02:38:32;5.40;;;3.45;;
22070;SDS011;11200;51.488;6.668;2022-08-01T02:41:07;4.45;;;3.30;;
22070;SDS011;11200;51.488;6.668;2022-08-01T02:43:34;3.80;;;3.40;;
22070;SDS011;11200;51.488;6.668;2022-08-01T02:46:03;3.85;;;3.50;;
22070;SDS011;11200;51.488;6.668;2022-08-01T02:48:31;3.83;;;3.45;;
22070;SDS011;11200;51.488;6.668;2022-08-01T02:51:00;4.28;;;3.72;;
22070;SDS011;11200;51.488;6.668;2022-08-01T02:53:27;3.78;;;3.45;;
22070;SDS011;11200;51.488;6.668;2022-08-01T02:55:57;3.50;;;3.30;;
22070;SDS011;11200;51.488;6.668;2022-08-01T02:58:24;4.32;;;3.90;;
22070;SDS011;11200;51.488;6.668;2022-08-01T03:00:50;3.85;;;3.55;;
22070;SDS011;11200;51.488;6.668;2022-08-01T03:03:17;3.88;;;3.28;;
22070;SDS011;11200;51.488;6.668;2022-08-01T03:05:43;4.28;;;3.75;;
22070;SDS011;11200;51.488;6.668;2022-08-01T03:08:10;4.65;;;4.18;;
22070;SDS011;11200;51.488;6.668;2022-08-01T03:10:38;4.00;;;3.60;;
22070;SDS011;11200;51.488;6.668;2022-08-01T03:13:07;3.80;;;3.50;;
22070;SDS011;11200;51.488;6.668;2022-08-01T03:15:35;4.03;;;3.47;;
22070;SDS011;11200;51.488;6.668;2022-08-01T03:18:03;4.20;;;3.65;;
22070;SDS011;11200;51.488;6.668;2022-08-01T03:20:33;4.72;;;3.88;;
22070;SDS011;11200;51.488;6.668;2022-08-01T03:23:00;5.00;;;4.45;;
22070;SDS011;11200;51.488;6.668;2022-08-01T03:25:28;4.25;;;3.90;;
22070;SDS011;11200;51.488;6.668;2022-08-01T03:27:58;4.35;;;3.95;;
22070;SDS011;11200;51.488;6.668;2022-08-01T03:30:27;4.15;;;3.75;;
22070;SDS011;11200;51.488;6.668;2022-08-01T03:32:55;4.35;;;3.95;;
22070;SDS011;11200;51.488;6.668;2022-08-01T03:35:21;3.83;;;3.50;;
22070;SDS011;11200;51.488;6.668;2022-08-01T03:37:50;4.05;;;3.60;;
22070;SDS011;11200;51.488;6.668;2022-08-01T03:40:23;4.00;;;3.60;;
22070;SDS011;11200;51.488;6.668;2022-08-01T03:42:55;4.65;;;4.25;;
22070;SDS011;11200;51.488;6.668;2022-08-01T03:45:30;4.30;;;3.90;;
22070;SDS011;11200;51.488;6.668;2022-08-01T03:48:00;3.97;;;3.58;;
22070;SDS011;11200;51.488;6.668;2022-08-01T03:50:28;4.25;;;3.70;;
22070;SDS011;11200;51.488;6.668;2022-08-01T03:52:59;6.20;;;4.20;;
22070;SDS011;11200;51.488;6.668;2022-08-01T03:55:26;4.25;;;3.60;;
22070;SDS011;11200;51.488;6.668;2022-08-01T03:57:53;4.72;;;4.22;;
22070;SDS011;11200;51.488;6.668;2022-08-01T04:00:20;4.47;;;3.85;;
22070;SDS011;11200;51.488;6.668;2022-08-01T04:02:46;4.03;;;3.63;;
22070;SDS011;11200;51.488;6.668;2022-08-01T04:05:14;4.05;;;3.65;;
22070;SDS011;11200;51.488;6.668;2022-08-01T04:07:40;3.95;;;3.60;;
22070;SDS011;11200;51.488;6.668;2022-08-01T04:10:11;4.13;;;3.72;;
22070;SDS011;11200;51.488;6.668;2022-08-01T04:12:37;4.45;;;4.05;;
22070;SDS011;11200;51.488;6.668;2022-08-01T04:15:03;4.30;;;3.90;;
22070;SDS011;11200;51.488;6.668;2022-08-01T04:17:30;3.83;;;3.53;;
22070;SDS011;11200;51.488;6.668;2022-08-01T04:19:56;5.05;;;3.63;;
22070;SDS011;11200;51.488;6.668;2022-08-01T04:22:22;4.00;;;3.58;;
22070;SDS011;11200;51.488;6.668;2022-08-01T04:24:48;3.95;;;3.63;;
22070;SDS011;11200;51.488;6.668;2022-08-01T04:27:17;3.63;;;3.33;;
22070;SDS011;11200;51.488;6.668;2022-08-01T04:29:47;3.70;;;3.40;;
22070;SDS011;11200;51.488;6.668;2022-08-01T04:32:16;4.13;;;3.53;;
22070;SDS011;11200;51.488;6.668;2022-08-01T04:34:45;4.20;;;3.80;;
22070;SDS011;11200;51.488;6.668;2022-08-01T04:37:12;3.83;;;3.53;;
22070;SDS011;11200;51.488;6.668;2022-08-01T04:39:44;3.60;;;3.25;;
22070;SDS011;11200;51.488;6.668;2022-08-01T04:42:11;3.88;;;3.58;;
22070;SDS011;11200;51.488;6.668;2022-08-01T04:44:38;4.40;;;4.00;;
22070;SDS011;11200;51.488;6.668;2022-08-01T04:47:04;4.28;;;3.70;;
22070;SDS011;11200;51.488;6.668;2022-08-01T04:49:34;3.75;;;3.42;;
22070;SDS011;11200;51.488;6.668;2022-08-01T04:52:00;4.47;;;4.00;;
22070;SDS011;11200;51.488;6.668;2022-08-01T04:54:33;4.75;;;4.10;;
22070;SDS011;11200;51.488;6.668;2022-08-01T04:57:01;4.75;;;4.10;;
22070;SDS011;11200;51.488;6.668;2022-08-01T04:59:28;4.20;;;3.80;;
22070;SDS011;11200;51.488;6.668;2022-08-01T05:04:33;4.72;;;4.22;;
22070;SDS011;11200;51.488;6.668;2022-08-01T05:07:00;3.67;;;3.38;;
22070;SDS011;11200;51.488;6.668;2022-08-01T05:09:26;4.18;;;3.78;;
22070;SDS011;11200;51.488;6.668;2022-08-01T05:11:52;4.20;;;3.80;;
22070;SDS011;11200;51.488;6.668;2022-08-01T05:14:18;4.32;;;3.92;;
22070;SDS011;11200;51.488;6.668;2022-08-01T05:16:44;4.15;;;3.78;;
22070;SDS011;11200;51.488;6.668;2022-08-01T05:19:10;4.05;;;3.70;;
22070;SDS011;11200;51.488;6.668;2022-08-01T05:21:36;5.22;;;4.05;;
22070;SDS011;11200;51.488;6.668;2022-08-01T05:24:02;4.22;;;3.83;;
22070;SDS011;11200;51.488;6.668;2022-08-01T05:26:29;4.30;;;3.90;;
22070;SDS011;11200;51.488;6.668;2022-08-01T05:28:54;4.80;;;4.25;;
22070;SDS011;11200;51.488;6.668;2022-08-01T05:31:20;4.47;;;4.07;;
22070;SDS011;11200;51.488;6.668;2022-08-01T05:33:46;4.30;;;3.97;;
22070;SDS011;11200;51.488;6.668;2022-08-01T05:36:11;4.07;;;3.67;;
22070;SDS011;11200;51.488;6.668;2022-08-01T05:38:37;4.10;;;3.70;;
22070;SDS011;11200;51.488;6.668;2022-08-01T05:41:02;4.20;;;3.80;;
22070;SDS011;11200;51.488;6.668;2022-08-01T05:43:28;4.72;;;4.22;;
22070;SDS011;11200;51.488;6.668;2022-08-01T05:45:54;4.47;;;4.07;;
22070;SDS011;11200;51.488;6.668;2022-08-01T05:48:19;4.43;;;3.78;;
22070;SDS011;11200;51.488;6.668;2022-08-01T05:50:45;4.32;;;3.90;;
22070;SDS011;11200;51.488;6.668;2022-08-01T05:53:12;4.45;;;4.00;;
22070;SDS011;11200;51.488;6.668;2022-08-01T05:55:38;5.10;;;3.92;;
22070;SDS011;11200;51.488;6.668;2022-08-01T05:58:03;4.03;;;3.65;;
22070;SDS011;11200;51.488;6.668;2022-08-01T06:00:29;4.25;;;3.85;;
22070;SDS011;11200;51.488;6.668;2022-08-01T06:02:55;4.22;;;3.55;;
22070;SDS011;11200;51.488;6.668;2022-08-01T06:05:20;4.22;;;3.80;;
22070;SDS011;11200;51.488;6.668;2022-08-01T06:07:46;4.40;;;3.65;;
22070;SDS011;11200;51.488;6.668;2022-08-01T06:10:11;3.70;;;3.40;;
22070;SDS011;11200;51.488;6.668;2022-08-01T06:12:37;3.70;;;3.40;;
22070;SDS011;11200;51.488;6.668;2022-08-01T06:15:06;3.75;;;3.35;;
22070;SDS011;11200;51.488;6.668;2022-08-01T06:17:32;3.75;;;3.30;;
22070;SDS011;11200;51.488;6.668;2022-08-01T06:19:58;3.72;;;3.42;;
22070;SDS011;11200;51.488;6.668;2022-08-01T06:22:24;3.30;;;3.00;;
22070;SDS011;11200;51.488;6.668;2022-08-01T06:24:50;3.72;;;3.42;;
22070;SDS011;11200;51.488;6.668;2022-08-01T06:27:16;3.60;;;3.30;;
22070;SDS011;11200;51.488;6.668;2022-08-01T06:29:41;4.05;;;3.60;;
22070;SDS011;11200;51.488;6.668;2022-08-01T06:32:08;3.50;;;3.20;;
22070;SDS011;11200;51.488;6.668;2022-08-01T06:34:34;3.70;;;3.30;;
22070;SDS011;11200;51.488;6.668;2022-08-01T06:37:00;3.33;;;3.00;;
22070;SDS011;11200;51.488;6.668;2022-08-01T06:39:25;3.92;;;3.45;;
22070;SDS011;11200;51.488;6.668;2022-08-01T06:41:51;3.80;;;3.15;;
22070;SDS011;11200;51.488;6.668;2022-08-01T06:44:17;3.60;;;3.20;;
22070;SDS011;11200;51.488;6.668;2022-08-01T06:46:42;3.70;;;3.40;;
22070;SDS011;11200;51.488;6.668;2022-08-01T06:49:08;3.30;;;3.00;;
22070;SDS011;11200;51.488;6.668;2022-08-01T06:51:33;3.20;;;2.90;;
22070;SDS011;11200;51.488;6.668;2022-08-01T06:53:59;3.05;;;2.85;;
22070;SDS011;11200;51.488;6.668;2022-08-01T06:56:25;3.53;;;3.22;;
22070;SDS011;11200;51.488;6.668;2022-08-01T06:58:50;3.35;;;3.08;;
22070;SDS011;11200;51.488;6.668;2022-08-01T07:01:16;3.40;;;3.10;;
22070;SDS011;11200;51.488;6.668;2022-08-01T07:03:42;3.97;;;3.25;;
22070;SDS011;11200;51.488;6.668;2022-08-01T07:06:07;3.38;;;3.08;;
22070;SDS011;11200;51.488;6.668;2022-08-01T07:08:33;2.97;;;2.78;;
22070;SDS011;11200;51.488;6.668;2022-08-01T07:10:59;2.90;;;2.63;;
22070;SDS011;11200;51.488;6.668;2022-08-01T07:13:27;2.90;;;2.60;;
22070;SDS011;11200;51.488;6.668;2022-08-01T07:15:55;3.28;;;2.97;;
22070;SDS011;11200;51.488;6.668;2022-08-01T07:18:21;2.45;;;2.25;;
22070;SDS011;11200;51.488;6.668;2022-08-01T07:20:48;3.30;;;3.00;;
22070;SDS011;11200;51.488;6.668;2022-08-01T07:23:14;2.83;;;2.60;;
22070;SDS011;11200;51.488;6.668;2022-08-01T07:25:43;2.70;;;2.50;;
22070;SDS011;11200;51.488;6.668;2022-08-01T07:28:12;2.75;;;2.55;;
22070;SDS011;11200;51.488;6.668;2022-08-01T07:30:38;3.05;;;2.75;;
22070;SDS011;11200;51.488;6.668;2022-08-01T07:33:07;2.80;;;2.60;;
22070;SDS011;11200;51.488;6.668;2022-08-01T07:35:32;2.67;;;2.47;;
22070;SDS011;11200;51.488;6.668;2022-08-01T07:37:58;2.67;;;2.47;;
22070;SDS011;11200;51.488;6.668;2022-08-01T07:40:24;2.97;;;2.40;;
22070;SDS011;11200;51.488;6.668;2022-08-01T07:42:50;2.78;;;2.58;;
22070;SDS011;11200;51.488;6.668;2022-08-01T07:45:16;2.50;;;2.30;;
22070;SDS011;11200;51.488;6.668;2022-08-01T07:47:41;2.70;;;2.50;;
22070;SDS011;11200;51.488;6.668;2022-08-01T07:50:07;2.55;;;2.35;;
22070;SDS011;11200;51.488;6.668;2022-08-01T07:52:42;2.50;;;2.30;;
22070;SDS011;11200;51.488;6.668;2022-08-01T07:55:09;2.65;;;2.30;;
22070;SDS011;11200;51.488;6.668;2022-08-01T07:57:36;3.35;;;2.67;;
22070;SDS011;11200;51.488;6.668;2022-08-01T08:00:03;2.35;;;2.15;;
22070;SDS011;11200;51.488;6.668;2022-08-01T08:02:30;2.50;;;2.30;;
22070;SDS011;11200;51.488;6.668;2022-08-01T08:04:56;2.40;;;2.20;;
22070;SDS011;11200;51.488;6.668;2022-08-01T08:07:22;2.50;;;2.30;;
22070;SDS011;11200;51.488;6.668;2022-08-01T08:09:47;2.15;;;1.95;;
22070;SDS011;11200;51.488;6.668;2022-08-01T08:12:13;2.30;;;2.10;;
22070;SDS011;11200;51.488;6.668;2022-08-01T08:14:38;2.40;;;2.20;;
22070;SDS011;11200;51.488;6.668;2022-08-01T08:17:16;2.30;;;2.10;;
22070;SDS011;11200;51.488;6.668;2022-08-01T08:19:42;1.95;;;1.85;;
22070;SDS011;11200;51.488;6.668;2022-08-01T08:22:07;2.00;;;1.80;;
22070;SDS011;11200;51.488;6.668;2022-08-01T08:24:34;2.35;;;2.05;;
22070;SDS011;11200;51.488;6.668;2022-08-01T08:27:03;2.10;;;2.00;;
22070;SDS011;11200;51.488;6.668;2022-08-01T08:29:29;2.10;;;1.80;;
22070;SDS011;11200;51.488;6.668;2022-08-01T08:31:57;2.10;;;1.90;;
22070;SDS011;11200;51.488;6.668;2022-08-01T08:34:25;1.95;;;1.80;;
22070;SDS011;11200;51.488;6.668;2022-08-01T08:36:52;2.40;;;2.20;;
22070;SDS011;11200;51.488;6.668;2022-08-01T08:39:18;2.53;;;1.80;;
22070;SDS011;11200;51.488;6.668;2022-08-01T08:41:44;2.20;;;2.00;;
22070;SDS011;11200;51.488;6.668;2022-08-01T08:44:09;1.98;;;1.88;;
22070;SDS011;11200;51.488;6.668;2022-08-01T08:46:42;1.98;;;1.80;;
22070;SDS011;11200;51.488;6.668;2022-08-01T08:49:10;1.60;;;1.50;;
22070;SDS011;11200;51.488;6.668;2022-08-01T08:51:38;2.17;;;1.92;;
22070;SDS011;11200;51.488;6.668;2022-08-01T08:54:05;2.33;;;1.70;;
22070;SDS011;11200;51.488;6.668;2022-08-01T08:56:32;1.83;;;1.73;;
22070;SDS011;11200;51.488;6.668;2022-08-01T08:59:01;1.60;;;1.50;;
22070;SDS011;11200;51.488;6.668;2022-08-01T09:01:27;1.70;;;1.60;;
22070;SDS011;11200;51.488;6.668;2022-08-01T09:04:00;1.80;;;1.70;;
22070;SDS011;11200;51.488;6.668;2022-08-01T09:06:28;1.60;;;1.50;;
22070;SDS011;11200;51.488;6.668;2022-08-01T09:08:55;1.58;;;1.48;;
22070;SDS011;11200;51.488;6.668;2022-08-01T09:11:21;1.58;;;1.48;;
22070;SDS011;11200;51.488;6.668;2022-08-01T09:16:31;2.53;;;1.65;;
22070;SDS011;11200;51.488;6.668;2022-08-01T09:19:09;1.40;;;1.30;;
22070;SDS011;11200;51.488;6.668;2022-08-01T09:21:36;1.70;;;1.60;;
22070;SDS011;11200;51.488;6.668;2022-08-01T09:24:02;1.85;;;1.75;;
22070;SDS011;11200;51.488;6.668;2022-08-01T09:26:34;1.70;;;1.60;;
22070;SDS011;11200;51.488;6.668;2022-08-01T09:29:17;1.73;;;1.63;;
22070;SDS011;11200;51.488;6.668;2022-08-01T09:31:44;2.10;;;1.65;;
22070;SDS011;11200;51.488;6.668;2022-08-01T09:34:10;1.50;;;1.40;;
22070;SDS011;11200;51.488;6.668;2022-08-01T09:39:19;1.73;;;1.60;;
22070;SDS011;11200;51.488;6.668;2022-08-01T09:41:47;1.52;;;1.42;;
22070;SDS011;11200;51.488;6.668;2022-08-01T09:44:13;1.77;;;1.67;;
22070;SDS011;11200;51.488;6.668;2022-08-01T09:46:49;1.70;;;1.60;;
22070;SDS011;11200;51.488;6.668;2022-08-01T09:49:31;1.50;;;1.40;;
22070;SDS011;11200;51.488;6.668;2022-08-01T09:51:59;1.60;;;1.50;;
22070;SDS011;11200;51.488;6.668;2022-08-01T09:54:43;1.40;;;1.30;;
22070;SDS011;11200;51.488;6.668;2022-08-01T09:57:18;1.67;;;1.58;;
22070;SDS011;11200;51.488;6.668;2022-08-01T09:59:49;1.48;;;1.38;;
22070;SDS011;11200;51.488;6.668;2022-08-01T10:02:35;1.40;;;1.30;;
22070;SDS011;11200;51.488;6.668;2022-08-01T10:05:04;1.40;;;1.30;;
22070;SDS011;11200;51.488;6.668;2022-08-01T10:07:31;1.40;;;1.30;;
22070;SDS011;11200;51.488;6.668;2022-08-01T10:10:10;1.40;;;1.30;;
22070;SDS011;11200;51.488;6.668;2022-08-01T10:12:37;1.40;;;1.30;;
22070;SDS011;11200;51.488;6.668;2022-08-01T10:15:04;1.48;;;1.38;;
22070;SDS011;11200;51.488;6.668;2022-08-01T10:17:31;1.50;;;1.40;;
22070;SDS011;11200;51.488;6.668;2022-08-01T10:19:59;1.40;;;1.30;;
22070;SDS011;11200;51.488;6.668;2022-08-01T10:22:26;1.48;;;1.35;;
22070;SDS011;11200;51.488;6.668;2022-08-01T10:24:55;1.50;;;1.40;;
22070;SDS011;11200;51.488;6.668;2022-08-01T10:27:22;1.30;;;1.20;;
22070;SDS011;11200;51.488;6.668;2022-08-01T10:29:51;1.30;;;1.20;;
22070;SDS011;11200;51.488;6.668;2022-08-01T10:32:23;1.75;;;1.13;;
22070;SDS011;11200;51.488;6.668;2022-08-01T10:34:49;1.17;;;1.08;;
22070;SDS011;11200;51.488;6.668;2022-08-01T10:37:15;1.00;;;1.00;;
22070;SDS011;11200;51.488;6.668;2022-08-01T10:39:42;0.90;;;0.90;;
22070;SDS011;11200;51.488;6.668;2022-08-01T10:42:09;0.98;;;0.95;;
22070;SDS011;11200;51.488;6.668;2022-08-01T10:44:36;1.00;;;1.00;;
22070;SDS011;11200;51.488;6.668;2022-08-01T10:47:05;1.10;;;1.00;;
22070;SDS011;11200;51.488;6.668;2022-08-01T10:49:39;1.25;;;1.10;;
22070;SDS011;11200;51.488;6.668;2022-08-01T10:52:13;1.10;;;1.00;;
22070;SDS011;11200;51.488;6.668;2022-08-01T10:54:40;0.90;;;0.90;;
22070;SDS011;11200;51.488;6.668;2022-08-01T10:57:05;1.10;;;1.00;;
22070;SDS011;11200;51.488;6.668;2022-08-01T10:59:32;1.00;;;1.00;;
22070;SDS011;11200;51.488;6.668;2022-08-01T11:01:59;1.10;;;1.00;;
22070;SDS011;11200;51.488;6.668;2022-08-01T11:04:31;0.80;;;0.80;;
22070;SDS011;11200;51.488;6.668;2022-08-01T11:07:13;0.80;;;0.80;;
22070;SDS011;11200;51.488;6.668;2022-08-01T11:09:47;1.10;;;1.00;;
22070;SDS011;11200;51.488;6.668;2022-08-01T11:12:40;0.90;;;0.90;;
22070;SDS011;11200;51.488;6.668;2022-08-01T11:20:13;0.80;;;0.80;;
22070;SDS011;11200;51.488;6.668;2022-08-01T11:31:43;1.02;;;0.93;;
22070;SDS011;11200;51.488;6.668;2022-08-01T11:52:07;0.90;;;0.80;;
22070;SDS011;11200;51.488;6.668;2022-08-01T11:54:46;1.00;;;1.00;;
22070;SDS011;11200;51.488;6.668;2022-08-01T11:57:15;0.80;;;0.80;;
22070;SDS011;11200;51.488;6.668;2022-08-01T11:59:44;0.90;;;0.90;;
22070;SDS011;11200;51.488;6.668;2022-08-01T12:02:16;0.80;;;0.80;;
22070;SDS011;11200;51.488;6.668;2022-08-01T12:04:44;0.70;;;0.70;;
22070;SDS011;11200;51.488;6.668;2022-08-01T12:07:14;0.80;;;0.80;;
22070;SDS011;11200;51.488;6.668;2022-08-01T12:09:40;0.82;;;0.82;;
22070;SDS011;11200;51.488;6.668;2022-08-01T12:12:06;0.80;;;0.80;;
22070;SDS011;11200;51.488;6.668;2022-08-01T12:14:36;0.88;;;0.88;;
22070;SDS011;11200;51.488;6.668;2022-08-01T12:17:02;0.70;;;0.70;;
22070;SDS011;11200;51.488;6.668;2022-08-01T12:19:27;0.80;;;0.80;;
22070;SDS011;11200;51.488;6.668;2022-08-01T12:22:10;0.70;;;0.70;;
22070;SDS011;11200;51.488;6.668;2022-08-01T12:24:39;0.80;;;0.80;;
22070;SDS011;11200;51.488;6.668;2022-08-01T12:27:07;1.05;;;0.80;;
22070;SDS011;11200;51.488;6.668;2022-08-01T12:29:38;0.80;;;0.80;;
22070;SDS011;11200;51.488;6.668;2022-08-01T12:32:20;0.77;;;0.77;;
22070;SDS011;11200;51.488;6.668;2022-08-01T12:34:46;0.85;;;0.80;;
22070;SDS011;11200;51.488;6.668;2022-08-01T12:37:12;0.70;;;0.70;;
22070;SDS011;11200;51.488;6.668;2022-08-01T12:39:38;0.70;;;0.70;;
22070;SDS011;11200;51.488;6.668;2022-08-01T12:42:07;0.80;;;0.80;;
22070;SDS011;11200;51.488;6.668;2022-08-01T12:44:35;1.00;;;0.90;;
22070;SDS011;11200;51.488;6.668;2022-08-01T12:47:02;0.70;;;0.70;;
22070;SDS011;11200;51.488;6.668;2022-08-01T12:49:30;2.28;;;0.82;;
22070;SDS011;11200;51.488;6.668;2022-08-01T12:51:57;1.40;;;0.80;;
22070;SDS011;11200;51.488;6.668;2022-08-01T12:54:26;0.80;;;0.80;;
22070;SDS011;11200;51.488;6.668;2022-08-01T12:56:52;0.90;;;0.90;;
22070;SDS011;11200;51.488;6.668;2022-08-01T12:59:22;0.80;;;0.80;;
22070;SDS011;11200;51.488;6.668;2022-08-01T13:01:55;0.65;;;0.65;;
22070;SDS011;11200;51.488;6.668;2022-08-01T13:04:21;1.92;;;0.95;;
22070;SDS011;11200;51.488;6.668;2022-08-01T13:06:53;1.17;;;0.90;;
22070;SDS011;11200;51.488;6.668;2022-08-01T13:09:19;0.82;;;0.75;;
22070;SDS011;11200;51.488;6.668;2022-08-01T13:11:45;0.93;;;0.90;;
22070;SDS011;11200;51.488;6.668;2022-08-01T13:14:33;0.88;;;0.80;;
22070;SDS011;11200;51.488;6.668;2022-08-01T13:16:59;1.38;;;0.75;;
22070;SDS011;11200;51.488;6.668;2022-08-01T13:19:43;1.08;;;0.90;;
22070;SDS011;11200;51.488;6.668;2022-08-01T13:22:10;0.90;;;0.90;;
22070;SDS011;11200;51.488;6.668;2022-08-01T13:24:35;0.75;;;0.75;;
22070;SDS011;11200;51.488;6.668;2022-08-01T13:27:02;0.90;;;0.90;;
22070;SDS011;11200;51.488;6.668;2022-08-01T13:31:58;1.00;;;0.90;;
22070;SDS011;11200;51.488;6.668;2022-08-01T13:34:44;1.65;;;0.90;;
22070;SDS011;11200;51.488;6.668;2022-08-01T13:37:10;1.17;;;1.08;;
22070;SDS011;11200;51.488;6.668;2022-08-01T13:39:36;1.30;;;0.85;;
22070;SDS011;11200;51.488;6.668;2022-08-01T13:42:15;0.82;;;0.82;;
22070;SDS011;11200;51.488;6.668;2022-08-01T13:44:42;0.90;;;0.90;;
22070;SDS011;11200;51.488;6.668;2022-08-01T13:47:11;0.90;;;0.90;;
22070;SDS011;11200;51.488;6.668;2022-08-01T13:49:38;2.00;;;1.23;;
22070;SDS011;11200;51.488;6.668;2022-08-01T13:52:04;0.90;;;0.80;;
22070;SDS011;11200;51.488;6.668;2022-08-01T13:54:33;1.13;;;1.02;;
22070;SDS011;11200;51.488;6.668;2022-08-01T13:56:59;1.48;;;0.90;;
22070;SDS011;11200;51.488;6.668;2022-08-01T13:59:24;2.15;;;1.00;;
22070;SDS011;11200;51.488;6.668;2022-08-01T14:01:50;1.35;;;0.88;;
22070;SDS011;11200;51.488;6.668;2022-08-01T14:04:16;1.40;;;0.98;;
22070;SDS011;11200;51.488;6.668;2022-08-01T14:06:41;1.05;;;0.95;;
22070;SDS011;11200;51.488;6.668;2022-08-01T14:09:07;1.25;;;0.90;;
22070;SDS011;11200;51.488;6.668;2022-08-01T14:11:33;1.80;;;0.90;;
22070;SDS011;11200;51.488;6.668;2022-08-01T14:13:59;1.38;;;0.80;;
22070;SDS011;11200;51.488;6.668;2022-08-01T14:16:24;1.10;;;1.00;;
22070;SDS011;11200;51.488;6.668;2022-08-01T14:18:50;0.88;;;0.88;;
22070;SDS011;11200;51.488;6.668;2022-08-01T14:21:16;1.00;;;1.00;;
22070;SDS011;11200;51.488;6.668;2022-08-01T14:23:47;0.80;;;0.80;;
22070;SDS011;11200;51.488;6.668;2022-08-01T14:26:16;1.00;;;0.90;;
22070;SDS011;11200;51.488;6.668;2022-08-01T14:28:47;1.17;;;1.08;;
22070;SDS011;11200;51.488;6.668;2022-08-01T14:31:13;1.92;;;1.10;;
22070;SDS011;11200;51.488;6.668;2022-08-01T14:33:39;1.38;;;0.98;;
22070;SDS011;11200;51.488;6.668;2022-08-01T14:36:04;1.38;;;0.90;;
22070;SDS011;11200;51.488;6.668;2022-08-01T14:38:30;0.93;;;0.80;;
22070;SDS011;11200;51.488;6.668;2022-08-01T14:40:56;1.08;;;0.98;;
22070;SDS011;11200;51.488;6.668;2022-08-01T14:43:21;1.08;;;0.98;;
22070;SDS011;11200;51.488;6.668;2022-08-01T14:45:47;0.88;;;0.85;;
22070;SDS011;11200;51.488;6.668;2022-08-01T14:48:15;0.85;;;0.85;;
22070;SDS011;11200;51.488;6.668;2022-08-01T14:50:43;1.13;;;0.90;;
22070;SDS011;11200;51.488;6.668;2022-08-01T14:53:09;1.17;;;1.00;;
22070;SDS011;11200;51.488;6.668;2022-08-01T14:55:35;1.42;;;0.80;;
22070;SDS011;11200;51.488;6.668;2022-08-01T14:58:01;1.17;;;0.98;;
22070;SDS011;11200;51.488;6.668;2022-08-01T15:00:26;0.85;;;0.85;;
22070;SDS011;11200;51.488;6.668;2022-08-01T15:05:21;0.80;;;0.80;;
22070;SDS011;11200;51.488;6.668;2022-08-01T15:07:47;1.13;;;0.80;;
22070;SDS011;11200;51.488;6.668;2022-08-01T15:10:13;1.25;;;0.88;;
22070;SDS011;11200;51.488;6.668;2022-08-01T15:12:39;0.90;;;0.90;;
22070;SDS011;11200;51.488;6.668;2022-08-01T15:15:04;1.48;;;0.93;;
22070;SDS011;11200;51.488;6.668;2022-08-01T15:17:31;1.48;;;1.10;;
22070;SDS011;11200;51.488;6.668;2022-08-01T15:20:00;0.80;;;0.73;;
22070;SDS011;11200;51.488;6.668;2022-08-01T15:22:32;1.52;;;1.00;;
22070;SDS011;11200;51.488;6.668;2022-08-01T15:24:59;1.77;;;1.00;;
22070;SDS011;11200;51.488;6.668;2022-08-01T15:27:26;1.48;;;0.93;;
22070;SDS011;11200;51.488;6.668;2022-08-01T15:29:52;1.27;;;1.00;;
22070;SDS011;11200;51.488;6.668;2022-08-01T15:32:19;1.58;;;0.90;;
22070;SDS011;11200;51.488;6.668;2022-08-01T15:34:45;1.00;;;0.90;;
22070;SDS011;11200;51.488;6.668;2022-08-01T15:37:11;0.98;;;0.80;;
22070;SDS011;11200;51.488;6.668;2022-08-01T15:39:37;0.90;;;0.80;;
22070;SDS011;11200;51.488;6.668;2022-08-01T15:42:04;1.05;;;0.95;;